sensor_id;sensor_type;location;lat;lon;timestamp;temperature;humidity
14489;DHT22;7330;50.804;4.550;2023-02-01T00:01:51;8.60;99.90
14489;DHT22;7330;50.804;4.550;2023-02-01T00:04:18;8.60;99.90
14489;DHT22;7330;50.804;4.550;2023-02-01T00:06:45;8.60;99.90
14489;DHT22;7330;50.804;4.550;2023-02-01T00:09:13;8.60;99.90
14489;DHT22;7330;50.804;4.550;2023-02-01T00:14:25;8.60;99.90
14489;DHT22;7330;50.804;4.550;2023-02-01T00:16:52;8.60;99.90
14489;DHT22;7330;50.804;4.550;2023-02-01T00:19:18;8.60;99.90
14489;DHT22;7330;50.804;4.550;2023-02-01T00:21:45;8.70;99.90
14489;DHT22;7330;50.804;4.550;2023-02-01T00:24:13;8.70;99.90
14489;DHT22;7330;50.804;4.550;2023-02-01T00:29:09;8.70;99.90
14489;DHT22;7330;50.804;4.550;2023-02-01T00:31:36;8.70;99.90
14489;DHT22;7330;50.804;4.550;2023-02-01T00:34:03;8.70;99.90
14489;DHT22;7330;50.804;4.550;2023-02-01T00:36:30;8.70;99.90
14489;DHT22;7330;50.804;4.550;2023-02-01T00:38:57;8.70;99.90
14489;DHT22;7330;50.804;4.550;2023-02-01T00:41:25;8.70;99.90
14489;DHT22;7330;50.804;4.550;2023-02-01T00:43:53;8.70;99.90
14489;DHT22;7330;50.804;4.550;2023-02-01T00:46:20;8.70;99.90
14489;DHT22;7330;50.804;4.550;2023-02-01T00:48:46;8.70;99.90
14489;DHT22;7330;50.804;4.550;2023-02-01T00:51:14;8.70;99.90
14489;DHT22;7330;50.804;4.550;2023-02-01T00:53:41;8.60;99.90
14489;DHT22;7330;50.804;4.550;2023-02-01T00:56:08;8.70;99.90
14489;DHT22;7330;50.804;4.550;2023-02-01T00:58:37;8.70;99.90
14489;DHT22;7330;50.804;4.550;2023-02-01T01:03:31;8.70;99.90
14489;DHT22;7330;50.804;4.550;2023-02-01T01:05:59;8.60;99.90
14489;DHT22;7330;50.804;4.550;2023-02-01T01:08:26;8.60;99.90
14489;DHT22;7330;50.804;4.550;2023-02-01T01:10:53;8.70;99.90
14489;DHT22;7330;50.804;4.550;2023-02-01T01:13:20;8.70;99.90
14489;DHT22;7330;50.804;4.550;2023-02-01T01:15:48;8.60;99.90
14489;DHT22;7330;50.804;4.550;2023-02-01T01:18:15;8.70;99.90
14489;DHT22;7330;50.804;4.550;2023-02-01T01:20:42;8.70;99.90
14489;DHT22;7330;50.804;4.550;2023-02-01T01:25:37;8.60;99.90
14489;DHT22;7330;50.804;4.550;2023-02-01T01:28:04;8.60;99.90
14489;DHT22;7330;50.804;4.550;2023-02-01T01:30:30;8.60;99.90
14489;DHT22;7330;50.804;4.550;2023-02-01T01:32:59;8.60;99.90
14489;DHT22;7330;50.804;4.550;2023-02-01T01:37:52;8.50;99.90
14489;DHT22;7330;50.804;4.550;2023-02-01T01:40:19;8.60;99.90
14489;DHT22;7330;50.804;4.550;2023-02-01T01:42:46;8.50;99.90
14489;DHT22;7330;50.804;4.550;2023-02-01T01:47:41;8.50;99.90
14489;DHT22;7330;50.804;4.550;2023-02-01T01:50:12;8.50;99.90
14489;DHT22;7330;50.804;4.550;2023-02-01T01:57:35;8.50;99.90
14489;DHT22;7330;50.804;4.550;2023-02-01T02:00:05;8.50;99.90
14489;DHT22;7330;50.804;4.550;2023-02-01T02:02:33;8.50;99.90
14489;DHT22;7330;50.804;4.550;2023-02-01T02:05:00;8.50;99.90
14489;DHT22;7330;50.804;4.550;2023-02-01T02:09:55;8.50;99.90
14489;DHT22;7330;50.804;4.550;2023-02-01T02:12:22;8.50;99.90
14489;DHT22;7330;50.804;4.550;2023-02-01T02:15:01;8.40;99.90
14489;DHT22;7330;50.804;4.550;2023-02-01T02:17:31;8.50;99.90
14489;DHT22;7330;50.804;4.550;2023-02-01T02:20:13;8.40;99.90
14489;DHT22;7330;50.804;4.550;2023-02-01T02:22:49;8.50;99.90
14489;DHT22;7330;50.804;4.550;2023-02-01T02:28:29;8.40;99.90
14489;DHT22;7330;50.804;4.550;2023-02-01T02:31:08;8.40;99.90
14489;DHT22;7330;50.804;4.550;2023-02-01T02:36:09;8.40;99.90
14489;DHT22;7330;50.804;4.550;2023-02-01T02:38:39;8.30;99.90
14489;DHT22;7330;50.804;4.550;2023-02-01T02:41:09;8.40;99.90
14489;DHT22;7330;50.804;4.550;2023-02-01T02:43:37;8.30;99.90
14489;DHT22;7330;50.804;4.550;2023-02-01T02:46:28;8.30;99.90
14489;DHT22;7330;50.804;4.550;2023-02-01T02:49:18;8.30;99.90
14489;DHT22;7330;50.804;4.550;2023-02-01T02:51:50;8.30;99.90
14489;DHT22;7330;50.804;4.550;2023-02-01T02:54:43;8.30;99.90
14489;DHT22;7330;50.804;4.550;2023-02-01T02:57:18;8.30;99.90
14489;DHT22;7330;50.804;4.550;2023-02-01T03:02:47;8.30;99.90
14489;DHT22;7330;50.804;4.550;2023-02-01T03:05:33;8.30;99.90
14489;DHT22;7330;50.804;4.550;2023-02-01T03:08:03;8.30;99.90
14489;DHT22;7330;50.804;4.550;2023-02-01T03:12:59;8.20;99.90
14489;DHT22;7330;50.804;4.550;2023-02-01T03:15:31;8.20;99.90
14489;DHT22;7330;50.804;4.550;2023-02-01T03:17:59;8.20;99.90
14489;DHT22;7330;50.804;4.550;2023-02-01T03:22:55;8.20;99.90
14489;DHT22;7330;50.804;4.550;2023-02-01T03:25:24;8.20;99.90
14489;DHT22;7330;50.804;4.550;2023-02-01T03:27:53;8.10;99.90
14489;DHT22;7330;50.804;4.550;2023-02-01T03:30:21;8.20;99.90
14489;DHT22;7330;50.804;4.550;2023-02-01T03:32:50;8.10;99.90
14489;DHT22;7330;50.804;4.550;2023-02-01T03:37:56;8.10;99.90
14489;DHT22;7330;50.804;4.550;2023-02-01T03:40:27;8.00;99.90
14489;DHT22;7330;50.804;4.550;2023-02-01T03:42:54;8.00;99.90
14489;DHT22;7330;50.804;4.550;2023-02-01T03:45:22;8.00;99.90
14489;DHT22;7330;50.804;4.550;2023-02-01T03:47:53;8.00;99.90
14489;DHT22;7330;50.804;4.550;2023-02-01T03:50:23;8.00;99.90
14489;DHT22;7330;50.804;4.550;2023-02-01T03:52:52;8.00;99.90
14489;DHT22;7330;50.804;4.550;2023-02-01T03:55:21;8.00;99.90
14489;DHT22;7330;50.804;4.550;2023-02-01T03:57:51;8.00;99.90
14489;DHT22;7330;50.804;4.550;2023-02-01T04:00:19;7.90;99.90
14489;DHT22;7330;50.804;4.550;2023-02-01T04:05:14;7.90;99.90
14489;DHT22;7330;50.804;4.550;2023-02-01T04:07:42;7.90;99.90
14489;DHT22;7330;50.804;4.550;2023-02-01T04:10:09;7.90;99.90
14489;DHT22;7330;50.804;4.550;2023-02-01T04:12:36;7.80;99.90
14489;DHT22;7330;50.804;4.550;2023-02-01T04:15:05;7.80;99.90
14489;DHT22;7330;50.804;4.550;2023-02-01T04:17:32;7.80;99.90
14489;DHT22;7330;50.804;4.550;2023-02-01T04:19:58;7.80;99.90
14489;DHT22;7330;50.804;4.550;2023-02-01T04:22:25;7.80;99.90
14489;DHT22;7330;50.804;4.550;2023-02-01T04:27:21;7.70;99.90
14489;DHT22;7330;50.804;4.550;2023-02-01T04:29:47;7.70;99.90
14489;DHT22;7330;50.804;4.550;2023-02-01T04:32:16;7.70;99.90
14489;DHT22;7330;50.804;4.550;2023-02-01T04:34:44;7.60;99.90
14489;DHT22;7330;50.804;4.550;2023-02-01T04:37:11;7.60;99.90
14489;DHT22;7330;50.804;4.550;2023-02-01T04:39:38;7.60;99.90
14489;DHT22;7330;50.804;4.550;2023-02-01T04:42:05;7.60;99.90
14489;DHT22;7330;50.804;4.550;2023-02-01T04:44:32;7.50;99.90
14489;DHT22;7330;50.804;4.550;2023-02-01T04:49:27;7.50;99.90
14489;DHT22;7330;50.804;4.550;2023-02-01T04:51:54;7.40;99.90
14489;DHT22;7330;50.804;4.550;2023-02-01T04:54:20;7.40;99.90
14489;DHT22;7330;50.804;4.550;2023-02-01T04:56:47;7.40;99.90
14489;DHT22;7330;50.804;4.550;2023-02-01T04:59:14;7.40;99.90
14489;DHT22;7330;50.804;4.550;2023-02-01T05:01:41;7.40;99.90
14489;DHT22;7330;50.804;4.550;2023-02-01T05:04:07;7.40;99.90
14489;DHT22;7330;50.804;4.550;2023-02-01T05:06:36;7.30;99.90
14489;DHT22;7330;50.804;4.550;2023-02-01T05:11:29;7.30;99.90
14489;DHT22;7330;50.804;4.550;2023-02-01T05:16:41;7.20;99.90
14489;DHT22;7330;50.804;4.550;2023-02-01T05:21:36;7.20;99.90
14489;DHT22;7330;50.804;4.550;2023-02-01T05:24:03;7.10;99.90
14489;DHT22;7330;50.804;4.550;2023-02-01T05:29:02;7.10;99.90
14489;DHT22;7330;50.804;4.550;2023-02-01T05:31:29;7.10;99.90
14489;DHT22;7330;50.804;4.550;2023-02-01T05:33:56;7.10;99.90
14489;DHT22;7330;50.804;4.550;2023-02-01T05:38:51;7.10;99.90
14489;DHT22;7330;50.804;4.550;2023-02-01T05:41:18;7.10;99.90
14489;DHT22;7330;50.804;4.550;2023-02-01T05:43:45;7.00;99.90
14489;DHT22;7330;50.804;4.550;2023-02-01T05:46:12;7.00;99.90
14489;DHT22;7330;50.804;4.550;2023-02-01T05:48:38;7.00;99.90
14489;DHT22;7330;50.804;4.550;2023-02-01T05:51:05;6.90;99.90
14489;DHT22;7330;50.804;4.550;2023-02-01T05:53:41;6.90;99.90
14489;DHT22;7330;50.804;4.550;2023-02-01T05:56:09;6.90;99.90
14489;DHT22;7330;50.804;4.550;2023-02-01T06:01:03;6.90;99.90
14489;DHT22;7330;50.804;4.550;2023-02-01T06:03:30;6.90;99.90
14489;DHT22;7330;50.804;4.550;2023-02-01T06:05:57;6.90;99.90
14489;DHT22;7330;50.804;4.550;2023-02-01T06:08:25;6.80;99.90
14489;DHT22;7330;50.804;4.550;2023-02-01T06:10:57;6.80;99.90
14489;DHT22;7330;50.804;4.550;2023-02-01T06:13:25;6.80;99.90
14489;DHT22;7330;50.804;4.550;2023-02-01T06:15:52;6.80;99.90
14489;DHT22;7330;50.804;4.550;2023-02-01T06:18:19;6.80;99.90
14489;DHT22;7330;50.804;4.550;2023-02-01T06:20:51;6.80;99.90
14489;DHT22;7330;50.804;4.550;2023-02-01T06:23:18;6.80;99.90
14489;DHT22;7330;50.804;4.550;2023-02-01T06:28:11;6.80;99.90
14489;DHT22;7330;50.804;4.550;2023-02-01T06:35:36;6.70;99.90
14489;DHT22;7330;50.804;4.550;2023-02-01T06:38:03;6.70;99.90
14489;DHT22;7330;50.804;4.550;2023-02-01T06:40:30;6.70;99.90
14489;DHT22;7330;50.804;4.550;2023-02-01T06:42:57;6.70;99.90
14489;DHT22;7330;50.804;4.550;2023-02-01T06:45:24;6.80;99.90
14489;DHT22;7330;50.804;4.550;2023-02-01T06:50:24;6.70;99.90
14489;DHT22;7330;50.804;4.550;2023-02-01T06:52:52;6.70;99.90
14489;DHT22;7330;50.804;4.550;2023-02-01T06:55:19;6.70;99.90
14489;DHT22;7330;50.804;4.550;2023-02-01T06:57:46;6.70;99.90
14489;DHT22;7330;50.804;4.550;2023-02-01T07:00:13;6.70;99.90
14489;DHT22;7330;50.804;4.550;2023-02-01T07:07:34;6.60;99.90
14489;DHT22;7330;50.804;4.550;2023-02-01T07:12:29;6.60;99.90
14489;DHT22;7330;50.804;4.550;2023-02-01T07:14:56;6.60;99.90
14489;DHT22;7330;50.804;4.550;2023-02-01T07:17:23;6.70;99.90
14489;DHT22;7330;50.804;4.550;2023-02-01T07:19:50;6.60;99.90
14489;DHT22;7330;50.804;4.550;2023-02-01T07:22:16;6.60;99.90
14489;DHT22;7330;50.804;4.550;2023-02-01T07:24:52;6.60;99.90
14489;DHT22;7330;50.804;4.550;2023-02-01T07:27:19;6.60;99.90
14489;DHT22;7330;50.804;4.550;2023-02-01T07:29:47;6.60;99.90
14489;DHT22;7330;50.804;4.550;2023-02-01T07:32:14;6.60;99.90
14489;DHT22;7330;50.804;4.550;2023-02-01T07:34:43;6.50;99.90
14489;DHT22;7330;50.804;4.550;2023-02-01T07:37:10;6.60;99.90
14489;DHT22;7330;50.804;4.550;2023-02-01T07:39:37;6.50;99.90
14489;DHT22;7330;50.804;4.550;2023-02-01T07:42:03;6.50;99.90
14489;DHT22;7330;50.804;4.550;2023-02-01T07:44:30;6.60;99.90
14489;DHT22;7330;50.804;4.550;2023-02-01T07:46:58;6.60;99.90
14489;DHT22;7330;50.804;4.550;2023-02-01T07:49:25;6.60;99.90
14489;DHT22;7330;50.804;4.550;2023-02-01T07:51:52;6.60;99.90
14489;DHT22;7330;50.804;4.550;2023-02-01T07:54:19;6.60;99.90
14489;DHT22;7330;50.804;4.550;2023-02-01T07:56:45;6.60;99.90
14489;DHT22;7330;50.804;4.550;2023-02-01T07:59:12;6.60;99.90
14489;DHT22;7330;50.804;4.550;2023-02-01T08:04:09;6.60;99.90
14489;DHT22;7330;50.804;4.550;2023-02-01T08:09:03;6.60;99.90
14489;DHT22;7330;50.804;4.550;2023-02-01T08:11:31;6.70;99.90
14489;DHT22;7330;50.804;4.550;2023-02-01T08:13:58;6.70;99.90
14489;DHT22;7330;50.804;4.550;2023-02-01T08:16:25;6.80;99.90
14489;DHT22;7330;50.804;4.550;2023-02-01T08:18:52;6.80;99.90
14489;DHT22;7330;50.804;4.550;2023-02-01T08:23:48;6.80;99.90
14489;DHT22;7330;50.804;4.550;2023-02-01T08:26:17;6.90;99.90
14489;DHT22;7330;50.804;4.550;2023-02-01T08:28:44;6.90;99.90
14489;DHT22;7330;50.804;4.550;2023-02-01T08:31:12;6.90;99.90
14489;DHT22;7330;50.804;4.550;2023-02-01T08:33:41;7.00;99.90
14489;DHT22;7330;50.804;4.550;2023-02-01T08:36:08;6.90;99.90
14489;DHT22;7330;50.804;4.550;2023-02-01T08:38:35;7.10;99.90
14489;DHT22;7330;50.804;4.550;2023-02-01T08:41:08;7.00;99.90
14489;DHT22;7330;50.804;4.550;2023-02-01T08:46:02;7.00;99.90
14489;DHT22;7330;50.804;4.550;2023-02-01T08:48:29;7.10;99.90
14489;DHT22;7330;50.804;4.550;2023-02-01T08:53:23;7.20;99.90
14489;DHT22;7330;50.804;4.550;2023-02-01T08:55:50;7.20;99.90
14489;DHT22;7330;50.804;4.550;2023-02-01T08:58:18;7.20;99.90
14489;DHT22;7330;50.804;4.550;2023-02-01T09:00:45;7.30;99.90
14489;DHT22;7330;50.804;4.550;2023-02-01T09:03:14;7.30;99.90
14489;DHT22;7330;50.804;4.550;2023-02-01T09:05:41;7.30;99.90
14489;DHT22;7330;50.804;4.550;2023-02-01T09:08:08;7.40;99.90
14489;DHT22;7330;50.804;4.550;2023-02-01T09:10:35;7.40;99.90
14489;DHT22;7330;50.804;4.550;2023-02-01T09:13:02;7.50;99.90
14489;DHT22;7330;50.804;4.550;2023-02-01T09:15:30;7.50;99.90
14489;DHT22;7330;50.804;4.550;2023-02-01T09:17:57;7.60;99.90
14489;DHT22;7330;50.804;4.550;2023-02-01T09:20:24;7.60;99.90
14489;DHT22;7330;50.804;4.550;2023-02-01T09:22:51;7.60;99.90
14489;DHT22;7330;50.804;4.550;2023-02-01T09:25:18;7.60;99.90
14489;DHT22;7330;50.804;4.550;2023-02-01T09:27:45;7.60;99.90
14489;DHT22;7330;50.804;4.550;2023-02-01T09:30:12;7.80;99.90
14489;DHT22;7330;50.804;4.550;2023-02-01T09:32:40;7.80;99.90
14489;DHT22;7330;50.804;4.550;2023-02-01T09:35:07;7.80;99.90
14489;DHT22;7330;50.804;4.550;2023-02-01T09:37:34;7.90;99.90
14489;DHT22;7330;50.804;4.550;2023-02-01T09:40:03;8.00;99.90
14489;DHT22;7330;50.804;4.550;2023-02-01T09:42:36;8.00;99.90
14489;DHT22;7330;50.804;4.550;2023-02-01T09:45:12;8.10;99.90
14489;DHT22;7330;50.804;4.550;2023-02-01T09:47:43;8.10;99.90
14489;DHT22;7330;50.804;4.550;2023-02-01T09:50:14;8.30;99.90
14489;DHT22;7330;50.804;4.550;2023-02-01T09:52:43;8.30;99.90
14489;DHT22;7330;50.804;4.550;2023-02-01T09:57:40;8.50;99.90
14489;DHT22;7330;50.804;4.550;2023-02-01T10:00:13;8.60;99.90
14489;DHT22;7330;50.804;4.550;2023-02-01T10:02:43;8.70;99.90
14489;DHT22;7330;50.804;4.550;2023-02-01T10:05:12;8.70;99.90
14489;DHT22;7330;50.804;4.550;2023-02-01T10:10:10;8.90;99.90
14489;DHT22;7330;50.804;4.550;2023-02-01T10:12:48;9.00;99.90
14489;DHT22;7330;50.804;4.550;2023-02-01T10:15:21;9.10;99.90
14489;DHT22;7330;50.804;4.550;2023-02-01T10:17:54;9.10;99.90
14489;DHT22;7330;50.804;4.550;2023-02-01T10:20:27;9.20;99.90
14489;DHT22;7330;50.804;4.550;2023-02-01T10:22:59;9.20;99.90
14489;DHT22;7330;50.804;4.550;2023-02-01T10:25:32;9.20;99.90
14489;DHT22;7330;50.804;4.550;2023-02-01T10:30:31;9.40;99.90
14489;DHT22;7330;50.804;4.550;2023-02-01T10:33:07;9.40;99.90
14489;DHT22;7330;50.804;4.550;2023-02-01T10:35:39;9.40;99.90
14489;DHT22;7330;50.804;4.550;2023-02-01T10:38:07;9.50;99.90
14489;DHT22;7330;50.804;4.550;2023-02-01T10:40:38;9.50;99.90
14489;DHT22;7330;50.804;4.550;2023-02-01T10:43:07;9.60;99.90
14489;DHT22;7330;50.804;4.550;2023-02-01T10:45:36;9.60;99.90
14489;DHT22;7330;50.804;4.550;2023-02-01T10:48:06;9.70;99.90
14489;DHT22;7330;50.804;4.550;2023-02-01T10:50:35;9.80;99.90
14489;DHT22;7330;50.804;4.550;2023-02-01T10:53:05;9.80;99.90
14489;DHT22;7330;50.804;4.550;2023-02-01T10:58:01;9.90;99.90
14489;DHT22;7330;50.804;4.550;2023-02-01T11:00:28;9.90;99.90
14489;DHT22;7330;50.804;4.550;2023-02-01T11:06:00;10.00;99.90
14489;DHT22;7330;50.804;4.550;2023-02-01T11:08:27;10.00;99.90
14489;DHT22;7330;50.804;4.550;2023-02-01T11:10:58;10.00;99.90
14489;DHT22;7330;50.804;4.550;2023-02-01T11:13:28;10.10;99.90
14489;DHT22;7330;50.804;4.550;2023-02-01T11:18:24;10.20;99.90
14489;DHT22;7330;50.804;4.550;2023-02-01T11:20:53;10.30;99.90
14489;DHT22;7330;50.804;4.550;2023-02-01T11:23:22;10.30;99.90
14489;DHT22;7330;50.804;4.550;2023-02-01T11:25:51;10.30;99.90
14489;DHT22;7330;50.804;4.550;2023-02-01T11:28:20;10.30;99.90
14489;DHT22;7330;50.804;4.550;2023-02-01T11:33:15;10.50;99.90
14489;DHT22;7330;50.804;4.550;2023-02-01T11:35:42;10.50;99.90
14489;DHT22;7330;50.804;4.550;2023-02-01T11:40:38;10.60;99.90
14489;DHT22;7330;50.804;4.550;2023-02-01T11:43:07;10.60;99.90
14489;DHT22;7330;50.804;4.550;2023-02-01T11:45:34;10.70;99.90
14489;DHT22;7330;50.804;4.550;2023-02-01T11:48:07;10.70;99.90
14489;DHT22;7330;50.804;4.550;2023-02-01T11:53:05;10.80;99.90
14489;DHT22;7330;50.804;4.550;2023-02-01T11:55:45;10.70;99.90
14489;DHT22;7330;50.804;4.550;2023-02-01T11:58:22;10.80;99.90
14489;DHT22;7330;50.804;4.550;2023-02-01T12:03:30;10.90;99.90
14489;DHT22;7330;50.804;4.550;2023-02-01T12:06:04;10.90;99.90
14489;DHT22;7330;50.804;4.550;2023-02-01T12:08:38;10.90;99.90
14489;DHT22;7330;50.804;4.550;2023-02-01T12:11:18;11.00;99.90
14489;DHT22;7330;50.804;4.550;2023-02-01T12:13:51;11.10;99.90
14489;DHT22;7330;50.804;4.550;2023-02-01T12:16:26;11.20;99.90
14489;DHT22;7330;50.804;4.550;2023-02-01T12:21:31;11.30;99.90
14489;DHT22;7330;50.804;4.550;2023-02-01T12:24:10;11.30;99.90
14489;DHT22;7330;50.804;4.550;2023-02-01T12:26:46;11.30;99.90
14489;DHT22;7330;50.804;4.550;2023-02-01T12:31:44;11.40;99.90
14489;DHT22;7330;50.804;4.550;2023-02-01T12:34:25;11.40;99.90
14489;DHT22;7330;50.804;4.550;2023-02-01T12:36:58;11.40;99.90
14489;DHT22;7330;50.804;4.550;2023-02-01T12:39:29;11.40;99.90
14489;DHT22;7330;50.804;4.550;2023-02-01T12:42:00;11.40;99.90
14489;DHT22;7330;50.804;4.550;2023-02-01T12:46:56;11.30;99.80
14489;DHT22;7330;50.804;4.550;2023-02-01T12:49:27;11.30;99.90
14489;DHT22;7330;50.804;4.550;2023-02-01T12:51:58;11.50;99.90
14489;DHT22;7330;50.804;4.550;2023-02-01T12:54:28;11.40;99.70
14489;DHT22;7330;50.804;4.550;2023-02-01T12:56:57;11.50;99.50
14489;DHT22;7330;50.804;4.550;2023-02-01T12:59:31;11.40;99.30
14489;DHT22;7330;50.804;4.550;2023-02-01T13:04:28;11.40;98.80
14489;DHT22;7330;50.804;4.550;2023-02-01T13:06:58;11.40;98.80
14489;DHT22;7330;50.804;4.550;2023-02-01T13:09:29;11.50;99.00
14489;DHT22;7330;50.804;4.550;2023-02-01T13:14:27;11.60;98.90
14489;DHT22;7330;50.804;4.550;2023-02-01T13:16:58;11.70;99.20
14489;DHT22;7330;50.804;4.550;2023-02-01T13:19:27;11.70;98.90
14489;DHT22;7330;50.804;4.550;2023-02-01T13:21:57;11.80;98.70
14489;DHT22;7330;50.804;4.550;2023-02-01T13:24:30;11.80;98.20
14489;DHT22;7330;50.804;4.550;2023-02-01T13:26:59;11.60;98.20
14489;DHT22;7330;50.804;4.550;2023-02-01T13:32:04;11.60;98.40
14489;DHT22;7330;50.804;4.550;2023-02-01T13:34:40;11.50;98.00
14489;DHT22;7330;50.804;4.550;2023-02-01T13:37:13;11.60;97.90
14489;DHT22;7330;50.804;4.550;2023-02-01T13:42:30;11.70;98.20
14489;DHT22;7330;50.804;4.550;2023-02-01T13:47:27;11.70;98.00
14489;DHT22;7330;50.804;4.550;2023-02-01T13:49:55;11.70;98.20
14489;DHT22;7330;50.804;4.550;2023-02-01T13:52:25;11.70;98.10
14489;DHT22;7330;50.804;4.550;2023-02-01T14:02:40;11.90;98.50
14489;DHT22;7330;50.804;4.550;2023-02-01T14:05:12;11.90;98.30
14489;DHT22;7330;50.804;4.550;2023-02-01T14:12:57;11.70;97.40
14489;DHT22;7330;50.804;4.550;2023-02-01T14:15:29;11.70;97.40
14489;DHT22;7330;50.804;4.550;2023-02-01T14:17:57;11.60;97.40
14489;DHT22;7330;50.804;4.550;2023-02-01T14:23:12;11.60;97.60
14489;DHT22;7330;50.804;4.550;2023-02-01T14:25:39;11.60;97.60
14489;DHT22;7330;50.804;4.550;2023-02-01T14:28:10;11.60;97.40
14489;DHT22;7330;50.804;4.550;2023-02-01T14:30:37;11.60;97.50
14489;DHT22;7330;50.804;4.550;2023-02-01T14:33:12;11.50;97.80
14489;DHT22;7330;50.804;4.550;2023-02-01T14:38:11;11.60;97.80
14489;DHT22;7330;50.804;4.550;2023-02-01T14:40:38;11.50;97.70
14489;DHT22;7330;50.804;4.550;2023-02-01T14:43:07;11.50;97.80
14489;DHT22;7330;50.804;4.550;2023-02-01T14:50:48;11.50;98.20
14489;DHT22;7330;50.804;4.550;2023-02-01T14:53:18;11.50;98.20
14489;DHT22;7330;50.804;4.550;2023-02-01T14:55:49;11.40;98.30
14489;DHT22;7330;50.804;4.550;2023-02-01T14:58:21;11.30;98.30
14489;DHT22;7330;50.804;4.550;2023-02-01T15:00:51;11.30;98.30
14489;DHT22;7330;50.804;4.550;2023-02-01T15:05:45;11.30;98.50
14489;DHT22;7330;50.804;4.550;2023-02-01T15:08:24;11.40;98.60
14489;DHT22;7330;50.804;4.550;2023-02-01T15:10:52;11.30;98.50
14489;DHT22;7330;50.804;4.550;2023-02-01T15:15:59;11.40;98.60
14489;DHT22;7330;50.804;4.550;2023-02-01T15:18:25;11.30;98.80
14489;DHT22;7330;50.804;4.550;2023-02-01T15:20:55;11.30;98.70
14489;DHT22;7330;50.804;4.550;2023-02-01T15:23:24;11.30;98.90
14489;DHT22;7330;50.804;4.550;2023-02-01T15:25:51;11.30;98.80
14489;DHT22;7330;50.804;4.550;2023-02-01T15:33:15;11.10;99.10
14489;DHT22;7330;50.804;4.550;2023-02-01T15:35:42;11.10;99.30
14489;DHT22;7330;50.804;4.550;2023-02-01T15:40:54;11.10;99.30
14489;DHT22;7330;50.804;4.550;2023-02-01T15:43:22;11.10;99.30
14489;DHT22;7330;50.804;4.550;2023-02-01T15:45:49;11.00;99.50
14489;DHT22;7330;50.804;4.550;2023-02-01T15:48:19;11.00;99.50
14489;DHT22;7330;50.804;4.550;2023-02-01T15:50:48;11.00;99.70
14489;DHT22;7330;50.804;4.550;2023-02-01T15:55:42;10.90;99.70
14489;DHT22;7330;50.804;4.550;2023-02-01T16:00:42;10.90;99.80
14489;DHT22;7330;50.804;4.550;2023-02-01T16:03:23;10.90;99.90
14489;DHT22;7330;50.804;4.550;2023-02-01T16:08:21;10.90;99.90
14489;DHT22;7330;50.804;4.550;2023-02-01T16:10:48;10.90;99.90
14489;DHT22;7330;50.804;4.550;2023-02-01T16:13:16;10.90;99.90
14489;DHT22;7330;50.804;4.550;2023-02-01T16:15:44;10.90;99.90
14489;DHT22;7330;50.804;4.550;2023-02-01T16:18:11;10.90;99.90
14489;DHT22;7330;50.804;4.550;2023-02-01T16:20:39;11.00;99.90
14489;DHT22;7330;50.804;4.550;2023-02-01T16:23:06;10.90;99.90
14489;DHT22;7330;50.804;4.550;2023-02-01T16:28:00;10.80;99.90
14489;DHT22;7330;50.804;4.550;2023-02-01T16:30:27;10.80;99.90
14489;DHT22;7330;50.804;4.550;2023-02-01T16:32:56;10.80;99.90
14489;DHT22;7330;50.804;4.550;2023-02-01T16:37:50;10.70;99.90
14489;DHT22;7330;50.804;4.550;2023-02-01T16:40:18;10.80;99.90
14489;DHT22;7330;50.804;4.550;2023-02-01T16:42:47;10.80;99.90
14489;DHT22;7330;50.804;4.550;2023-02-01T16:45:15;10.80;99.90
14489;DHT22;7330;50.804;4.550;2023-02-01T16:50:15;10.70;99.90
14489;DHT22;7330;50.804;4.550;2023-02-01T16:52:43;10.70;99.90
14489;DHT22;7330;50.804;4.550;2023-02-01T16:55:10;10.70;99.90
14489;DHT22;7330;50.804;4.550;2023-02-01T16:57:38;10.70;99.90
14489;DHT22;7330;50.804;4.550;2023-02-01T17:00:06;10.70;99.90
14489;DHT22;7330;50.804;4.550;2023-02-01T17:02:34;10.70;99.90
14489;DHT22;7330;50.804;4.550;2023-02-01T17:05:00;10.60;99.90
14489;DHT22;7330;50.804;4.550;2023-02-01T17:07:29;10.60;99.90
14489;DHT22;7330;50.804;4.550;2023-02-01T17:09:55;10.50;99.90
14489;DHT22;7330;50.804;4.550;2023-02-01T17:12:23;10.60;99.90
14489;DHT22;7330;50.804;4.550;2023-02-01T17:14:50;10.60;99.90
14489;DHT22;7330;50.804;4.550;2023-02-01T17:19:44;10.60;99.90
14489;DHT22;7330;50.804;4.550;2023-02-01T17:22:12;10.60;99.90
14489;DHT22;7330;50.804;4.550;2023-02-01T17:24:40;10.60;99.90
14489;DHT22;7330;50.804;4.550;2023-02-01T17:27:07;10.60;99.90
14489;DHT22;7330;50.804;4.550;2023-02-01T17:29:34;10.50;99.90
14489;DHT22;7330;50.804;4.550;2023-02-01T17:32:01;10.50;99.90
14489;DHT22;7330;50.804;4.550;2023-02-01T17:34:28;10.50;99.90
14489;DHT22;7330;50.804;4.550;2023-02-01T17:36:55;10.50;99.90
14489;DHT22;7330;50.804;4.550;2023-02-01T17:39:22;10.50;99.90
14489;DHT22;7330;50.804;4.550;2023-02-01T17:42:10;10.50;99.90
14489;DHT22;7330;50.804;4.550;2023-02-01T17:47:04;10.40;99.90
14489;DHT22;7330;50.804;4.550;2023-02-01T17:49:31;10.50;99.90
14489;DHT22;7330;50.804;4.550;2023-02-01T17:52:00;10.40;99.90
14489;DHT22;7330;50.804;4.550;2023-02-01T17:54:27;10.40;99.90
14489;DHT22;7330;50.804;4.550;2023-02-01T17:56:53;10.40;99.90
14489;DHT22;7330;50.804;4.550;2023-02-01T18:01:50;10.40;99.90
14489;DHT22;7330;50.804;4.550;2023-02-01T18:04:18;10.30;99.90
14489;DHT22;7330;50.804;4.550;2023-02-01T18:09:13;10.30;99.90
14489;DHT22;7330;50.804;4.550;2023-02-01T18:14:08;10.30;99.90
14489;DHT22;7330;50.804;4.550;2023-02-01T18:16:36;10.30;99.90
14489;DHT22;7330;50.804;4.550;2023-02-01T18:21:31;10.30;99.90
14489;DHT22;7330;50.804;4.550;2023-02-01T18:26:26;10.30;99.90
14489;DHT22;7330;50.804;4.550;2023-02-01T18:28:52;10.30;99.90
14489;DHT22;7330;50.804;4.550;2023-02-01T18:31:20;10.30;99.90
14489;DHT22;7330;50.804;4.550;2023-02-01T18:33:48;10.30;99.90
14489;DHT22;7330;50.804;4.550;2023-02-01T18:36:15;10.30;99.90
14489;DHT22;7330;50.804;4.550;2023-02-01T18:38:43;10.20;99.90
14489;DHT22;7330;50.804;4.550;2023-02-01T18:43:37;10.20;99.90
14489;DHT22;7330;50.804;4.550;2023-02-01T18:46:04;10.20;99.90
14489;DHT22;7330;50.804;4.550;2023-02-01T18:48:31;10.10;99.90
14489;DHT22;7330;50.804;4.550;2023-02-01T18:50:58;10.10;99.90
14489;DHT22;7330;50.804;4.550;2023-02-01T18:53:25;10.10;99.90
14489;DHT22;7330;50.804;4.550;2023-02-01T18:55:53;10.20;99.90
14489;DHT22;7330;50.804;4.550;2023-02-01T18:58:21;10.20;99.90
14489;DHT22;7330;50.804;4.550;2023-02-01T19:00:51;10.20;99.90
14489;DHT22;7330;50.804;4.550;2023-02-01T19:03:18;10.20;99.90
14489;DHT22;7330;50.804;4.550;2023-02-01T19:05:47;10.10;99.90
14489;DHT22;7330;50.804;4.550;2023-02-01T19:08:14;10.10;99.90
14489;DHT22;7330;50.804;4.550;2023-02-01T19:13:10;10.10;99.90
14489;DHT22;7330;50.804;4.550;2023-02-01T19:15:38;10.10;99.90
14489;DHT22;7330;50.804;4.550;2023-02-01T19:18:05;10.10;99.90
14489;DHT22;7330;50.804;4.550;2023-02-01T19:23:00;10.10;99.90
14489;DHT22;7330;50.804;4.550;2023-02-01T19:27:55;10.10;99.90
14489;DHT22;7330;50.804;4.550;2023-02-01T19:30:23;10.10;99.90
14489;DHT22;7330;50.804;4.550;2023-02-01T19:35:18;10.00;99.90
14489;DHT22;7330;50.804;4.550;2023-02-01T19:37:45;10.00;99.90
14489;DHT22;7330;50.804;4.550;2023-02-01T19:40:13;10.00;99.90
14489;DHT22;7330;50.804;4.550;2023-02-01T19:45:07;10.10;99.90